LFBELFBP

Guest
Details From LFBE - Bergerac Roumaniere
To LFBP - Pau Pyrenees
Flight Number -
Tags Generated
Created
Modified
Stats Distance 95 nm / 177 km
Max Altitude 0 ft / 0 m
Waypoints 2
Social Downloads 1
Likes 0
Share VATSIM

Download

Looking for another format? Having issues loading an existing format? Contact us
Advertisement - Login to hide

Notes

Generated

Route

LFBE LFBP

ID Type Via Altitude Latitude Longitude Leg Dist Tot Dist Heading (true) Name
O LFBE APT - 0 ft / 0 m 44.82527˚ 0.50495˚ - 0 nm - -
O LFBP APT - 0 ft / 0 m 43.38766˚ -0.43326˚ 95 nm 95 nm 205° / 205° -

Altitude Profile

Advertisement - Login to hide

LFBE

Details ICAO LFBE (EGC)
Name Bergerac Roumaniere
Region France
Timezone Europe/Paris (UTC+2.0)
Stats Elevation 171 ft / 52 m (AMSL)
Location 44.824525° 0.518776°
Runways 1
Magnetic Variation 0.343° E

METAR

LFBE 201430Z AUTO VRB03KT CAVOK 25/13 Q1013 TEMPO 4000 SHRA FEW040CB BKN050TCU

Decode

TAF

TAF LFBE 201100Z 2012/2112 VRB03KT CAVOK BECMG 2012/2014 SCT055TCU PROB30 2015/2018 4000 SHRA FEW040CB BKN050TCU BECMG 2018/2020 CAVOK PROB40 2103/2106 3000 BR BECMG 2107/2109 SCT030TCU TEMPO 2110/2112 4000 -SHRA FEW025CB BKN030TCU

Decode

Departure Runways

ID Width Length Bearing (true) Bearing (mag) Surface Threshold Offset Overrun Length
10 148 ft / 45 m 7,178 ft / 2,188 m 94.33° 93.99° Asphalt 687 ft / 209 m 0 ft / 0 m
28 148 ft / 45 m 7,178 ft / 2,188 m 274.35° 274.01° Asphalt 804 ft / 245 m 0 ft / 0 m

LFBP

Details ICAO LFBP (PUF)
Name Pau Pyrenees
Region France
Timezone Europe/Paris (UTC+2.0)
Stats Elevation 616 ft / 188 m (AMSL)
Location 43.381078° -0.420752°
Runways 1
Magnetic Variation 0.146° E

METAR

LFBP 201430Z AUTO VRB03KT 9999 FEW050 23/11 Q1014 TEMPO 4000 SHRA BKN030CB

Decode

TAF

TAF LFBP 201100Z 2012/2112 35005KT CAVOK PROB40 TEMPO 2014/2018 4000 SHRA BKN030TCU PROB30 TEMPO 2016/2018 TSRA BKN030CB BECMG 2018/2020 VRB02KT BECMG 2100/2102 12005KT

Decode

Destination Runways

ID Width Length Bearing (true) Bearing (mag) Surface Threshold Offset Overrun Length
13 148 ft / 45 m 8,191 ft / 2,497 m 125.89° 125.74° Asphalt 0 ft / 0 m 0 ft / 0 m
31 148 ft / 45 m 8,191 ft / 2,497 m 305.90° 305.75° Asphalt 0 ft / 0 m 0 ft / 0 m

Approach Navaids

Runway Type Ident Frequency Range Bearing (true) Bearing (mag) Slope Elevation
31 Localiser PU 110.10 MHz 18 nm / 33 km 305.89° 305.74° - 576 ft / 176 m (AMSL)
31 Glidescope PU 110.10 MHz 10 nm / 19 km 305.90° 305.75° 3.00° 676 ft / 206 m (AMSL)
31 DME PU 110.10 MHz 18 nm / 33 km - - - 608 ft / 185 m (AMSL)

Popular Alternatives